createdAt,value
2023-05-09T00:00:29.527Z,7.47
2023-05-09T00:01:08.066Z,7.85
2023-05-09T00:01:41.857Z,8.32
2023-05-09T00:02:14.398Z,7.68
2023-05-09T00:02:48.735Z,7.78
2023-05-09T00:03:21.523Z,7.88
2023-05-09T00:03:54.094Z,8.88
2023-05-09T00:04:27.938Z,8.00
2023-05-09T00:05:01.235Z,8.20
2023-05-09T00:05:33.926Z,8.27
2023-05-09T00:06:08.068Z,8.20
2023-05-09T00:06:40.810Z,9.07
2023-05-09T00:07:13.626Z,7.47
2023-05-09T00:07:47.448Z,7.80
2023-05-09T00:08:20.240Z,8.63
2023-05-09T00:08:53.042Z,8.50
2023-05-09T00:09:28.565Z,8.43
2023-05-09T00:10:01.884Z,8.35
2023-05-09T00:10:36.411Z,7.82
2023-05-09T00:11:10.213Z,7.70
2023-05-09T00:11:43.107Z,8.05
2023-05-09T00:12:16.369Z,8.38
2023-05-09T00:12:51.524Z,7.55
2023-05-09T00:13:25.143Z,6.88
2023-05-09T00:13:58.736Z,8.00
2023-05-09T00:14:33.665Z,8.02
2023-05-09T00:15:08.465Z,8.13
2023-05-09T00:15:41.431Z,7.63
2023-05-09T00:16:16.345Z,8.02
2023-05-09T00:16:49.467Z,8.95
2023-05-09T00:17:22.954Z,8.73
2023-05-09T00:17:56.847Z,8.95
2023-05-09T00:18:31.301Z,8.27
2023-05-09T00:19:04.724Z,7.80
2023-05-09T00:19:39.243Z,7.25
2023-05-09T00:20:13.564Z,8.82
2023-05-09T00:20:46.629Z,8.70
2023-05-09T00:21:19.504Z,7.53
2023-05-09T00:21:53.569Z,8.23
2023-05-09T00:22:26.460Z,8.40
2023-05-09T00:22:59.423Z,7.95
2023-05-09T00:23:33.298Z,8.13
2023-05-09T00:24:06.557Z,8.80
2023-05-09T00:24:40.920Z,7.95
2023-05-09T00:25:14.976Z,8.15
2023-05-09T00:25:48.093Z,8.48
2023-05-09T00:26:21.896Z,8.65
2023-05-09T00:26:56.042Z,7.90
2023-05-09T00:27:30.838Z,8.00
2023-05-09T00:28:03.730Z,8.63
2023-05-09T00:28:37.728Z,8.82
2023-05-09T00:29:10.575Z,7.88
2023-05-09T00:29:43.491Z,8.77
2023-05-09T00:30:17.501Z,8.57
2023-05-09T00:30:50.375Z,8.27
2023-05-09T00:31:23.192Z,8.48
2023-05-09T00:31:57.518Z,8.07
2023-05-09T00:33:03.802Z,7.82
2023-05-09T00:33:37.828Z,7.68
2023-05-09T00:34:11.154Z,7.53
2023-05-09T00:34:44.031Z,7.72
2023-05-09T00:35:17.851Z,8.75
2023-05-09T00:35:50.787Z,8.80
2023-05-09T00:36:23.854Z,8.05
2023-05-09T00:36:57.981Z,8.70
2023-05-09T00:37:32.083Z,7.88
2023-05-09T00:38:04.870Z,8.20
2023-05-09T00:38:38.931Z,8.00
2023-05-09T00:39:12.081Z,7.80
2023-05-09T00:39:46.360Z,8.40
2023-05-09T00:40:20.424Z,8.65
2023-05-09T00:40:53.580Z,7.57
2023-05-09T00:41:26.906Z,8.73
2023-05-09T00:42:00.821Z,8.68
2023-05-09T00:42:33.817Z,8.10
2023-05-09T00:43:06.991Z,8.45
2023-05-09T00:43:40.894Z,9.48
2023-05-09T00:44:14.241Z,8.32
2023-05-09T00:44:47.249Z,8.27
2023-05-09T00:45:21.395Z,8.57
2023-05-09T00:45:54.277Z,8.00
2023-05-09T00:46:27.537Z,8.27
2023-05-09T00:47:01.510Z,8.20
2023-05-09T00:47:35.113Z,7.95
2023-05-09T00:48:08.149Z,7.78
2023-05-09T00:48:41.163Z,8.30
2023-05-09T00:49:15.697Z,8.27
2023-05-09T00:49:48.569Z,8.40
2023-05-09T00:50:22.062Z,9.13
2023-05-09T00:50:56.543Z,8.00
2023-05-09T00:51:29.987Z,9.35
2023-05-09T00:52:04.472Z,9.02
2023-05-09T00:52:38.703Z,8.48
2023-05-09T00:53:11.816Z,9.13
2023-05-09T00:53:45.087Z,8.63
2023-05-09T00:54:18.263Z,8.13
2023-05-09T00:54:53.613Z,8.32
2023-05-09T00:55:27.366Z,8.70
2023-05-09T00:56:01.627Z,7.80
2023-05-09T00:56:35.515Z,8.02
2023-05-09T00:57:08.419Z,8.48
2023-05-09T00:57:41.299Z,8.68
2023-05-09T00:58:15.695Z,9.18
2023-05-09T00:58:49.674Z,9.10
2023-05-09T00:59:22.554Z,8.30
2023-05-09T00:59:57.146Z,10.18
2023-05-09T01:00:30.022Z,8.55
2023-05-09T01:01:04.000Z,8.43
2023-05-09T01:01:37.938Z,8.50
2023-05-09T01:02:11.381Z,8.52
2023-05-09T01:02:45.209Z,8.32
2023-05-09T01:03:19.939Z,8.73
2023-05-09T01:03:53.234Z,8.98
2023-05-09T01:04:26.177Z,7.97
2023-05-09T01:04:59.309Z,8.98
2023-05-09T01:05:39.111Z,8.25
2023-05-09T01:06:14.122Z,8.57
2023-05-09T01:06:52.642Z,8.13
2023-05-09T01:07:32.505Z,7.80
2023-05-09T01:08:08.647Z,8.40
2023-05-09T01:08:45.234Z,8.45
2023-05-09T01:09:26.976Z,8.13
2023-05-09T01:10:04.965Z,8.30
2023-05-09T01:10:40.821Z,9.10
2023-05-09T01:11:18.240Z,8.38
2023-05-09T01:11:54.485Z,8.48
2023-05-09T01:12:34.713Z,8.82
2023-05-09T01:13:26.292Z,9.88
2023-05-09T01:14:08.690Z,9.07
2023-05-09T01:14:52.772Z,8.73
2023-05-09T01:15:32.524Z,8.90
2023-05-09T01:16:11.182Z,8.10
2023-05-09T01:16:52.259Z,7.80
2023-05-09T01:17:34.050Z,9.10
2023-05-09T01:18:12.470Z,8.27
2023-05-09T01:18:50.979Z,8.93
2023-05-09T01:19:53.410Z,8.85
2023-05-09T01:20:33.890Z,8.95
2023-05-09T01:21:12.094Z,8.73
2023-05-09T01:21:47.853Z,9.18
2023-05-09T01:22:25.302Z,8.73
2023-05-09T01:23:23.200Z,8.98
2023-05-09T01:24:20.063Z,8.52
2023-05-09T01:25:16.366Z,9.68
2023-05-09T01:26:02.776Z,7.97
2023-05-09T01:26:46.745Z,9.35
2023-05-09T01:27:28.145Z,9.38
2023-05-09T01:28:14.072Z,8.85
2023-05-09T01:29:12.789Z,8.75
2023-05-09T01:29:47.604Z,8.45
2023-05-09T01:30:21.905Z,9.35
2023-05-09T01:30:56.834Z,9.30
2023-05-09T01:31:29.900Z,8.73
2023-05-09T01:32:06.377Z,8.88
2023-05-09T01:32:44.137Z,8.27
2023-05-09T01:33:19.758Z,8.93
2023-05-09T01:33:57.872Z,8.40
2023-05-09T01:34:33.674Z,9.10
2023-05-09T01:35:09.825Z,9.10
2023-05-09T01:35:44.893Z,8.95
2023-05-09T01:36:21.574Z,8.88
2023-05-09T01:36:59.268Z,8.98
2023-05-09T01:37:34.616Z,9.50
2023-05-09T01:38:18.725Z,8.82
2023-05-09T01:38:52.986Z,8.40
2023-05-09T01:39:27.085Z,9.60
2023-05-09T01:40:06.322Z,10.43
2023-05-09T01:40:41.056Z,8.05
2023-05-09T01:41:17.055Z,8.55
2023-05-09T01:41:51.681Z,9.02
2023-05-09T01:42:28.008Z,9.98
2023-05-09T01:43:07.179Z,8.80
2023-05-09T01:43:41.569Z,8.93
2023-05-09T01:44:16.275Z,9.45
2023-05-09T01:44:52.410Z,8.43
2023-05-09T01:45:27.758Z,9.25
2023-05-09T01:46:01.209Z,9.90
2023-05-09T01:46:36.529Z,8.35
2023-05-09T01:47:09.845Z,9.80
2023-05-09T01:47:43.534Z,9.25
2023-05-09T01:48:18.088Z,10.02
2023-05-09T01:48:54.392Z,13.20
2023-05-09T01:49:29.157Z,10.93
2023-05-09T01:50:03.524Z,9.38
2023-05-09T01:50:38.102Z,8.73
2023-05-09T01:51:13.347Z,8.80
2023-05-09T01:51:47.460Z,8.35
2023-05-09T01:52:22.384Z,9.73
2023-05-09T01:52:58.169Z,8.32
2023-05-09T01:53:32.372Z,8.75
2023-05-09T01:54:07.093Z,9.23
2023-05-09T01:54:40.617Z,10.10
2023-05-09T01:55:14.969Z,9.85
2023-05-09T01:55:49.319Z,8.88
2023-05-09T01:56:23.798Z,9.90
2023-05-09T01:56:57.950Z,8.82
2023-05-09T01:57:31.334Z,9.30
2023-05-09T01:58:05.728Z,9.27
2023-05-09T01:58:43.716Z,9.07
2023-05-09T01:59:19.696Z,9.75
2023-05-09T01:59:53.035Z,9.00
2023-05-09T02:00:27.868Z,9.55
2023-05-09T02:01:01.699Z,8.95
2023-05-09T02:01:35.343Z,9.63
2023-05-09T02:02:09.544Z,8.95
2023-05-09T02:02:43.403Z,9.48
2023-05-09T02:03:16.657Z,8.85
2023-05-09T02:03:53.697Z,9.68
2023-05-09T02:04:28.727Z,9.63
2023-05-09T02:05:02.132Z,9.38
2023-05-09T02:05:38.629Z,8.80
2023-05-09T02:06:11.708Z,8.95
2023-05-09T02:06:46.385Z,9.23
2023-05-09T02:07:20.519Z,9.48
2023-05-09T02:07:55.068Z,8.57
2023-05-09T02:08:29.382Z,8.82
2023-05-09T02:09:03.154Z,8.82
2023-05-09T02:09:36.223Z,9.00
2023-05-09T02:10:11.632Z,8.98
2023-05-09T02:10:46.609Z,9.65
2023-05-09T02:11:19.329Z,7.95
2023-05-09T02:11:52.916Z,8.77
2023-05-09T02:12:26.910Z,9.73
2023-05-09T02:12:59.726Z,9.65
2023-05-09T02:13:33.762Z,9.32
2023-05-09T02:14:06.569Z,8.98
2023-05-09T02:14:40.524Z,10.25
2023-05-09T02:15:14.501Z,9.75
2023-05-09T02:15:48.062Z,9.15
2023-05-09T02:16:22.839Z,9.15
2023-05-09T02:16:56.737Z,10.25
2023-05-09T02:17:30.950Z,10.13
2023-05-09T02:18:03.760Z,9.38
2023-05-09T02:18:38.491Z,9.55
2023-05-09T02:19:11.736Z,8.45
2023-05-09T02:19:44.444Z,9.27
2023-05-09T02:20:19.665Z,8.38
2023-05-09T02:20:52.657Z,9.05
2023-05-09T02:21:26.331Z,8.73
2023-05-09T02:22:01.604Z,9.85
2023-05-09T02:22:34.185Z,8.98
2023-05-09T02:23:08.245Z,9.07
2023-05-09T02:23:40.920Z,9.52
2023-05-09T02:24:14.120Z,9.00
2023-05-09T02:24:46.852Z,9.02
2023-05-09T02:25:20.577Z,8.43
2023-05-09T02:25:55.379Z,8.88
2023-05-09T02:26:29.435Z,9.38
2023-05-09T02:27:04.820Z,9.15
2023-05-09T02:27:40.207Z,9.02
2023-05-09T02:28:13.832Z,9.15
2023-05-09T02:28:49.348Z,8.25
2023-05-09T02:29:29.245Z,8.90
2023-05-09T02:30:08.812Z,8.43
2023-05-09T02:30:45.744Z,8.32
2023-05-09T02:31:20.889Z,8.55
2023-05-09T02:31:54.516Z,8.18
2023-05-09T02:32:31.718Z,9.48
2023-05-09T02:33:08.911Z,9.95
2023-05-09T02:33:43.136Z,8.68
2023-05-09T02:34:17.292Z,8.95
2023-05-09T02:34:52.522Z,8.30
2023-05-09T02:35:27.456Z,11.90
2023-05-09T02:36:01.957Z,11.40
2023-05-09T02:36:35.230Z,9.60
2023-05-09T02:37:08.297Z,9.20
2023-05-09T02:37:42.622Z,8.13
2023-05-09T02:38:15.982Z,9.57
2023-05-09T02:38:50.296Z,9.07
2023-05-09T02:39:24.270Z,9.65
2023-05-09T02:39:56.930Z,8.88
2023-05-09T02:40:30.909Z,8.52
2023-05-09T02:41:04.620Z,8.60
2023-05-09T02:41:37.455Z,8.55
2023-05-09T02:42:11.473Z,7.72
2023-05-09T02:42:45.108Z,8.10
2023-05-09T02:43:17.665Z,9.07
2023-05-09T02:43:50.612Z,8.95
2023-05-09T02:44:24.296Z,9.10
2023-05-09T02:44:56.970Z,8.23
2023-05-09T02:45:31.090Z,8.57
2023-05-09T02:46:05.007Z,8.40
2023-05-09T02:46:37.750Z,8.07
2023-05-09T02:47:10.444Z,8.38
2023-05-09T02:47:46.960Z,7.70
2023-05-09T02:48:19.990Z,8.35
2023-05-09T02:48:53.296Z,8.10
2023-05-09T02:49:31.917Z,8.68
2023-05-09T02:50:08.625Z,8.25
2023-05-09T02:50:43.581Z,9.10
2023-05-09T02:51:17.285Z,9.40
2023-05-09T02:51:49.873Z,9.07
2023-05-09T02:52:22.858Z,8.27
2023-05-09T02:52:56.440Z,9.10
2023-05-09T02:53:29.126Z,9.18
2023-05-09T02:54:01.904Z,9.20
2023-05-09T02:54:35.728Z,8.60
2023-05-09T02:55:09.903Z,8.55
2023-05-09T02:55:46.374Z,8.70
2023-05-09T02:56:19.150Z,9.10
2023-05-09T02:56:51.888Z,8.77
2023-05-09T02:57:24.587Z,8.85
2023-05-09T02:58:12.070Z,8.82
2023-05-09T02:58:51.467Z,8.90
2023-05-09T02:59:24.466Z,8.55
2023-05-09T02:59:58.210Z,8.20
2023-05-09T03:00:32.371Z,8.00
2023-05-09T03:01:05.097Z,8.35
2023-05-09T03:01:38.024Z,7.25
2023-05-09T03:02:11.805Z,8.35
2023-05-09T03:02:45.112Z,8.32
2023-05-09T03:03:23.531Z,8.60
2023-05-09T03:03:57.962Z,8.13
2023-05-09T03:04:30.683Z,7.47
2023-05-09T03:05:03.993Z,7.80
2023-05-09T03:05:37.663Z,8.32
2023-05-09T03:06:10.258Z,7.75
2023-05-09T03:06:43.040Z,8.32
2023-05-09T03:07:16.563Z,8.63
2023-05-09T03:07:49.743Z,7.80
2023-05-09T03:08:22.366Z,7.43
2023-05-09T03:08:56.037Z,7.50
2023-05-09T03:09:30.344Z,8.98
2023-05-09T03:10:02.999Z,7.63
2023-05-09T03:10:37.861Z,7.78
2023-05-09T03:11:11.080Z,8.20
2023-05-09T03:11:43.892Z,8.63
2023-05-09T03:12:17.721Z,7.68
2023-05-09T03:12:50.500Z,7.65
2023-05-09T03:13:23.134Z,8.35
2023-05-09T03:13:55.748Z,8.40
2023-05-09T03:14:29.399Z,8.20
2023-05-09T03:15:02.337Z,7.95
2023-05-09T03:15:37.537Z,8.50
2023-05-09T03:16:14.980Z,7.70
2023-05-09T03:16:48.031Z,7.90
2023-05-09T03:17:29.275Z,7.93
2023-05-09T03:18:02.955Z,7.97
2023-05-09T03:18:35.564Z,8.40
2023-05-09T03:19:08.728Z,8.85
2023-05-09T03:19:42.434Z,8.60
2023-05-09T03:20:16.314Z,8.80
2023-05-09T03:20:48.905Z,7.88
2023-05-09T03:21:23.388Z,7.68
2023-05-09T03:21:55.968Z,8.50
2023-05-09T03:22:28.573Z,8.48
2023-05-09T03:23:07.552Z,8.68
2023-05-09T03:23:40.298Z,7.93
2023-05-09T03:24:12.909Z,8.30
2023-05-09T03:24:46.566Z,8.00
2023-05-09T03:25:19.393Z,9.02
2023-05-09T03:25:52.244Z,9.05
2023-05-09T03:26:26.641Z,8.82
2023-05-09T03:27:00.451Z,8.30
2023-05-09T03:27:33.489Z,8.38
2023-05-09T03:28:08.170Z,8.73
2023-05-09T03:28:41.708Z,8.38
2023-05-09T03:29:14.528Z,8.40
2023-05-09T03:29:48.193Z,8.00
2023-05-09T03:30:22.016Z,7.95
2023-05-09T03:30:56.962Z,8.38
2023-05-09T03:31:33.734Z,7.10
2023-05-09T03:32:06.825Z,8.48
2023-05-09T03:32:40.014Z,7.90
2023-05-09T03:33:13.753Z,8.23
2023-05-09T03:33:46.484Z,8.70
2023-05-09T03:34:21.337Z,8.85
2023-05-09T03:34:55.578Z,9.68
2023-05-09T03:35:28.130Z,8.63
2023-05-09T03:36:01.538Z,8.02
2023-05-09T03:36:35.111Z,7.60
2023-05-09T03:37:08.600Z,7.93
2023-05-09T03:37:44.951Z,8.02
2023-05-09T03:38:18.692Z,8.05
2023-05-09T03:38:51.695Z,8.40
2023-05-09T03:39:26.703Z,7.82
2023-05-09T03:40:04.096Z,8.27
2023-05-09T03:40:40.672Z,8.35
2023-05-09T03:41:17.521Z,7.63
2023-05-09T03:41:52.922Z,8.18
2023-05-09T03:42:25.626Z,8.30
2023-05-09T03:43:02.048Z,7.65
2023-05-09T03:43:34.626Z,8.68
2023-05-09T03:44:09.046Z,9.20
2023-05-09T03:44:41.591Z,8.35
2023-05-09T03:45:14.351Z,7.97
2023-05-09T03:45:49.393Z,8.63
2023-05-09T03:46:23.800Z,7.65
2023-05-09T03:46:58.893Z,8.70
2023-05-09T03:47:33.166Z,7.40
2023-05-09T03:48:11.427Z,7.75
2023-05-09T03:48:50.466Z,8.70
2023-05-09T03:49:24.954Z,8.77
2023-05-09T03:49:59.486Z,9.18
2023-05-09T03:50:32.178Z,7.90
2023-05-09T03:51:06.459Z,8.45
2023-05-09T03:51:42.986Z,8.20
2023-05-09T03:52:19.891Z,8.70
2023-05-09T03:52:55.321Z,8.88
2023-05-09T03:53:27.960Z,8.82
2023-05-09T03:54:01.326Z,8.48
2023-05-09T03:54:36.083Z,7.88
2023-05-09T03:55:09.630Z,8.82
2023-05-09T03:55:42.965Z,8.50
2023-05-09T03:56:18.679Z,8.35
2023-05-09T03:56:55.972Z,9.90
2023-05-09T03:57:29.285Z,8.18
2023-05-09T03:58:04.224Z,7.93
2023-05-09T03:58:38.406Z,9.13
2023-05-09T03:59:11.912Z,8.70
2023-05-09T03:59:45.706Z,7.93
2023-05-09T04:00:20.237Z,8.40
2023-05-09T04:01:02.856Z,9.07
2023-05-09T04:01:40.303Z,9.93
2023-05-09T04:02:14.078Z,7.57
2023-05-09T04:02:47.120Z,9.07
2023-05-09T04:03:30.068Z,8.70
2023-05-09T04:04:03.564Z,8.10
2023-05-09T04:04:39.637Z,8.50
2023-05-09T04:05:13.852Z,8.18
2023-05-09T04:05:46.982Z,8.50
2023-05-09T04:06:30.204Z,8.50
2023-05-09T04:07:05.372Z,8.98
2023-05-09T04:07:38.465Z,9.10
2023-05-09T04:08:11.567Z,8.77
2023-05-09T04:08:45.476Z,8.85
2023-05-09T04:09:18.407Z,7.95
2023-05-09T04:09:52.919Z,8.60
2023-05-09T04:10:27.047Z,8.40
2023-05-09T04:11:01.123Z,8.70
2023-05-09T04:11:34.119Z,8.90
2023-05-09T04:12:08.955Z,9.32
2023-05-09T04:12:41.964Z,8.55
2023-05-09T04:13:15.342Z,8.45
2023-05-09T04:13:50.674Z,8.55
2023-05-09T04:14:34.584Z,8.30
2023-05-09T04:15:08.348Z,9.32
2023-05-09T04:15:42.823Z,9.10
2023-05-09T04:16:15.795Z,8.70
2023-05-09T04:16:50.098Z,9.05
2023-05-09T04:17:23.895Z,8.90
2023-05-09T04:17:56.960Z,8.40
2023-05-09T04:18:30.981Z,8.70
2023-05-09T04:19:05.214Z,9.00
2023-05-09T04:19:38.577Z,8.80
2023-05-09T04:20:12.608Z,9.25
2023-05-09T04:20:46.568Z,8.57
2023-05-09T04:21:22.108Z,8.20
2023-05-09T04:21:58.546Z,8.82
2023-05-09T04:22:31.392Z,9.25
2023-05-09T04:23:05.246Z,9.10
2023-05-09T04:23:39.036Z,8.43
2023-05-09T04:24:12.696Z,8.88
2023-05-09T04:24:52.030Z,8.48
2023-05-09T04:25:25.036Z,8.77
2023-05-09T04:25:58.027Z,9.10
2023-05-09T04:26:32.430Z,8.27
2023-05-09T04:27:06.542Z,8.52
2023-05-09T04:27:40.689Z,8.70
2023-05-09T04:28:14.594Z,9.15
2023-05-09T04:28:49.366Z,8.85
2023-05-09T04:29:23.693Z,8.73
2023-05-09T04:30:00.963Z,8.00
2023-05-09T04:30:33.884Z,8.73
2023-05-09T04:31:09.602Z,8.15
2023-05-09T04:31:43.748Z,9.35
2023-05-09T04:32:21.016Z,9.43
2023-05-09T04:32:55.557Z,8.40
2023-05-09T04:33:30.229Z,9.13
2023-05-09T04:34:06.956Z,8.88
2023-05-09T04:34:41.340Z,8.38
2023-05-09T04:35:22.018Z,8.80
2023-05-09T04:35:56.108Z,9.13
2023-05-09T04:36:29.184Z,9.35
2023-05-09T04:37:04.809Z,9.65
2023-05-09T04:37:39.521Z,8.35
2023-05-09T04:38:12.758Z,9.18
2023-05-09T04:38:46.928Z,8.48
2023-05-09T04:39:24.714Z,9.02
2023-05-09T04:40:11.110Z,8.45
2023-05-09T04:40:50.705Z,8.45
2023-05-09T04:41:24.654Z,8.88
2023-05-09T04:41:58.220Z,9.50
2023-05-09T04:42:33.603Z,9.43
2023-05-09T04:43:07.773Z,8.90
2023-05-09T04:43:41.723Z,8.75
2023-05-09T04:44:14.960Z,8.65
2023-05-09T04:44:49.691Z,8.88
2023-05-09T04:45:22.805Z,8.52
2023-05-09T04:45:55.779Z,8.25
2023-05-09T04:46:29.829Z,8.93
2023-05-09T04:47:03.562Z,9.05
2023-05-09T04:47:37.811Z,8.27
2023-05-09T04:48:11.983Z,8.75
2023-05-09T04:48:44.881Z,9.13
2023-05-09T04:49:17.702Z,8.73
2023-05-09T04:49:50.810Z,9.13
2023-05-09T04:50:24.809Z,8.20
2023-05-09T04:50:57.666Z,8.38
2023-05-09T04:51:30.615Z,9.32
2023-05-09T04:52:04.572Z,8.80
2023-05-09T04:52:37.624Z,8.35
2023-05-09T04:53:11.128Z,9.93
2023-05-09T04:53:45.392Z,9.98
2023-05-09T04:54:19.085Z,8.48
2023-05-09T04:54:52.124Z,9.68
2023-05-09T04:55:28.665Z,9.73
2023-05-09T04:56:03.164Z,9.98
2023-05-09T04:56:37.063Z,9.57
2023-05-09T04:57:18.059Z,9.38
2023-05-09T04:57:54.729Z,9.35
2023-05-09T04:58:28.891Z,9.15
2023-05-09T04:59:03.103Z,9.63
2023-05-09T04:59:36.300Z,8.40
2023-05-09T05:00:11.653Z,8.82
2023-05-09T05:00:45.125Z,10.45
2023-05-09T05:01:18.068Z,9.80
2023-05-09T05:01:51.856Z,10.52
2023-05-09T05:02:26.753Z,9.98
2023-05-09T05:03:01.851Z,9.10
2023-05-09T05:03:37.249Z,9.25
2023-05-09T05:04:10.892Z,9.00
2023-05-09T05:04:43.521Z,8.32
2023-05-09T05:05:17.301Z,8.27
2023-05-09T05:05:50.057Z,9.68
2023-05-09T05:06:23.280Z,9.93
2023-05-09T05:06:57.156Z,9.20
2023-05-09T05:07:29.858Z,9.10
2023-05-09T05:08:02.580Z,9.27
2023-05-09T05:08:40.976Z,9.63
2023-05-09T05:09:14.674Z,8.98
2023-05-09T05:09:47.230Z,8.57
2023-05-09T05:10:21.176Z,8.38
2023-05-09T05:10:59.106Z,8.88
2023-05-09T05:11:32.974Z,8.32
2023-05-09T05:12:09.295Z,8.50
2023-05-09T05:12:43.919Z,7.75
2023-05-09T05:13:21.610Z,8.18
2023-05-09T05:13:58.938Z,9.00
2023-05-09T05:14:31.834Z,8.23
2023-05-09T05:15:05.925Z,7.82
2023-05-09T05:15:41.995Z,7.43
2023-05-09T05:16:16.676Z,7.75
2023-05-09T05:16:50.002Z,7.88
2023-05-09T05:17:24.813Z,8.98
2023-05-09T05:17:59.561Z,9.68
2023-05-09T05:18:38.190Z,9.52
2023-05-09T05:19:12.638Z,9.02
2023-05-09T05:19:47.599Z,8.75
2023-05-09T05:20:22.166Z,8.65
2023-05-09T05:20:56.651Z,8.95
2023-05-09T05:21:31.003Z,9.50
2023-05-09T05:22:04.389Z,7.90
2023-05-09T05:22:39.309Z,8.32
2023-05-09T05:23:12.408Z,7.18
2023-05-09T05:23:45.146Z,6.50
2023-05-09T05:24:21.433Z,7.32
2023-05-09T05:24:54.363Z,8.00
2023-05-09T05:25:31.636Z,7.60
2023-05-09T05:26:08.260Z,8.52
2023-05-09T05:26:41.825Z,9.48
2023-05-09T05:27:15.914Z,10.13
2023-05-09T05:27:49.069Z,7.82
2023-05-09T05:28:22.246Z,9.65
2023-05-09T05:28:57.300Z,7.80
2023-05-09T05:29:31.302Z,7.82
2023-05-09T05:30:04.896Z,7.55
2023-05-09T05:30:38.853Z,7.85
2023-05-09T05:31:12.188Z,7.43
2023-05-09T05:31:45.041Z,8.43
2023-05-09T05:32:19.187Z,8.07
2023-05-09T05:32:52.124Z,8.00
2023-05-09T05:33:26.725Z,7.22
2023-05-09T05:34:01.535Z,8.13
2023-05-09T05:34:39.473Z,7.32
2023-05-09T05:35:12.907Z,6.72
2023-05-09T05:35:47.904Z,7.05
2023-05-09T05:36:20.873Z,7.55
2023-05-09T05:36:54.772Z,7.63
2023-05-09T05:37:28.100Z,6.85
2023-05-09T05:38:01.328Z,7.45
2023-05-09T05:38:35.735Z,7.10
2023-05-09T05:39:09.140Z,7.30
2023-05-09T05:39:42.123Z,7.07
2023-05-09T05:40:16.114Z,6.60
2023-05-09T05:40:52.295Z,5.72
2023-05-09T05:41:27.520Z,6.28
2023-05-09T05:42:02.044Z,5.78
2023-05-09T05:42:34.966Z,6.05
2023-05-09T05:43:07.878Z,5.53
2023-05-09T05:43:44.107Z,5.13
2023-05-09T05:44:17.349Z,5.07
2023-05-09T05:44:51.678Z,5.07
2023-05-09T05:45:26.081Z,4.68
2023-05-09T05:46:01.712Z,5.20
2023-05-09T05:46:37.095Z,5.47
2023-05-09T05:47:12.956Z,5.72
2023-05-09T05:47:48.161Z,5.20
2023-05-09T05:48:21.569Z,5.25
2023-05-09T05:48:56.736Z,5.15
2023-05-09T05:49:32.054Z,5.03
2023-05-09T05:50:07.046Z,5.25
2023-05-09T05:50:43.249Z,4.55
2023-05-09T05:51:17.794Z,4.10
2023-05-09T05:51:51.089Z,4.40
2023-05-09T05:52:26.457Z,2.60
2023-05-09T05:53:00.373Z,2.35
2023-05-09T05:53:33.486Z,2.60
2023-05-09T05:54:07.326Z,2.33
2023-05-09T05:54:41.609Z,2.10
2023-05-09T05:55:15.204Z,2.28
2023-05-09T05:55:49.575Z,2.45
2023-05-09T05:56:22.947Z,2.70
2023-05-09T05:56:56.349Z,2.80
2023-05-09T05:57:30.266Z,3.22
2023-05-09T05:58:03.519Z,3.05
2023-05-09T05:58:36.485Z,3.05
2023-05-09T05:59:13.558Z,3.10
2023-05-09T05:59:47.957Z,2.78
2023-05-09T06:00:22.673Z,3.20
2023-05-09T06:01:02.530Z,3.00
2023-05-09T06:01:37.079Z,3.20
2023-05-09T06:02:10.409Z,3.55
2023-05-09T06:02:44.003Z,2.95
2023-05-09T06:03:23.773Z,4.28
2023-05-09T06:04:08.993Z,4.03
2023-05-09T06:04:44.780Z,2.80
2023-05-09T06:05:17.865Z,3.22
2023-05-09T06:05:51.099Z,3.60
2023-05-09T06:06:25.964Z,3.95
2023-05-09T06:07:00.579Z,3.80
2023-05-09T06:07:33.539Z,4.63
2023-05-09T06:08:08.061Z,4.35
2023-05-09T06:08:40.905Z,3.38
2023-05-09T06:09:14.919Z,3.58
2023-05-09T06:09:47.640Z,3.83
2023-05-09T06:10:20.529Z,3.75
2023-05-09T06:10:54.445Z,3.45
2023-05-09T06:11:27.396Z,4.03
2023-05-09T06:12:00.692Z,3.80
2023-05-09T06:12:34.754Z,3.50
2023-05-09T06:13:07.818Z,3.15
2023-05-09T06:13:42.665Z,3.78
2023-05-09T06:14:17.996Z,3.42
2023-05-09T06:14:50.832Z,2.80
2023-05-09T06:15:23.633Z,2.92
2023-05-09T06:16:07.764Z,2.78
2023-05-09T06:16:48.584Z,3.00
2023-05-09T06:17:22.371Z,3.10
2023-05-09T06:17:55.233Z,3.13
2023-05-09T06:18:29.093Z,2.78
2023-05-09T06:19:01.868Z,2.30
2023-05-09T06:19:34.723Z,2.10
2023-05-09T06:20:10.571Z,2.17
2023-05-09T06:20:43.587Z,1.95
2023-05-09T06:21:16.690Z,1.55
2023-05-09T06:21:50.548Z,1.50
2023-05-09T06:22:23.754Z,1.20
2023-05-09T06:23:00.638Z,1.48
2023-05-09T06:23:33.670Z,1.17
2023-05-09T06:24:14.141Z,1.30
2023-05-09T06:24:53.134Z,1.35
2023-05-09T06:25:26.055Z,1.48
2023-05-09T06:25:59.960Z,1.45
2023-05-09T06:26:33.648Z,1.50
2023-05-09T06:27:06.504Z,1.38
2023-05-09T06:27:40.622Z,1.85
2023-05-09T06:28:13.605Z,2.17
2023-05-09T06:28:46.478Z,2.10
2023-05-09T06:29:21.766Z,2.30
2023-05-09T06:29:54.578Z,2.42
2023-05-09T06:30:28.588Z,2.35
2023-05-09T06:31:01.926Z,2.35
2023-05-09T06:31:38.544Z,2.80
2023-05-09T06:32:12.810Z,2.03
2023-05-09T06:32:45.839Z,2.15
2023-05-09T06:33:18.768Z,2.20
2023-05-09T06:33:52.583Z,2.03
2023-05-09T06:34:25.412Z,1.65
2023-05-09T06:34:58.392Z,2.30
2023-05-09T06:35:34.302Z,2.22
2023-05-09T06:36:07.343Z,1.95
2023-05-09T06:36:40.206Z,2.55
2023-05-09T06:37:13.915Z,1.73
2023-05-09T06:37:48.665Z,3.35
2023-05-09T06:38:21.969Z,2.60
2023-05-09T06:38:55.821Z,2.10
2023-05-09T06:39:28.808Z,2.13
2023-05-09T06:40:01.929Z,1.92
2023-05-09T06:40:36.727Z,1.70
2023-05-09T06:41:09.642Z,2.45
2023-05-09T06:41:42.469Z,1.92
2023-05-09T06:42:16.815Z,1.98
2023-05-09T06:42:50.216Z,2.10
2023-05-09T06:43:25.247Z,1.90
2023-05-09T06:43:58.057Z,1.90
2023-05-09T06:44:30.916Z,1.83
2023-05-09T06:45:04.947Z,1.92
2023-05-09T06:45:38.096Z,2.03
2023-05-09T06:46:12.072Z,2.05
2023-05-09T06:46:44.893Z,2.00
2023-05-09T06:47:17.842Z,2.25
2023-05-09T06:47:51.646Z,2.40
2023-05-09T06:48:24.487Z,2.10
2023-05-09T06:48:57.407Z,2.03
2023-05-09T06:49:31.240Z,2.83
2023-05-09T06:50:04.171Z,1.45
2023-05-09T06:50:38.475Z,1.40
2023-05-09T06:51:12.651Z,1.40
2023-05-09T06:51:45.555Z,1.20
2023-05-09T06:52:18.559Z,1.67
2023-05-09T06:52:52.474Z,1.30
2023-05-09T06:53:27.374Z,1.00
2023-05-09T06:54:00.326Z,1.20
2023-05-09T06:54:34.270Z,1.20
2023-05-09T06:55:08.140Z,1.35
2023-05-09T06:55:41.137Z,1.55
2023-05-09T06:56:15.000Z,1.83
2023-05-09T06:56:47.867Z,1.40
2023-05-09T06:57:21.817Z,1.20
2023-05-09T06:57:54.784Z,1.40
2023-05-09T06:58:27.916Z,1.85
2023-05-09T06:59:01.765Z,1.50
2023-05-09T06:59:34.536Z,1.40
2023-05-09T07:00:07.953Z,1.15
2023-05-09T07:00:41.795Z,1.20
2023-05-09T07:01:14.712Z,1.23
2023-05-09T07:01:48.735Z,1.20
2023-05-09T07:02:21.705Z,1.58
2023-05-09T07:02:55.993Z,1.35
2023-05-09T07:03:28.900Z,1.35
2023-05-09T07:04:01.729Z,1.38
2023-05-09T07:04:35.722Z,1.13
2023-05-09T07:05:09.757Z,1.40
2023-05-09T07:05:43.712Z,1.20
2023-05-09T07:06:17.717Z,1.52
2023-05-09T07:06:50.435Z,1.40
2023-05-09T07:07:23.172Z,1.50
2023-05-09T07:07:57.098Z,1.60
2023-05-09T07:08:29.736Z,1.50
2023-05-09T07:09:04.387Z,1.88
2023-05-09T07:09:38.144Z,1.60
2023-05-09T07:10:12.822Z,1.33
2023-05-09T07:10:45.833Z,1.70
2023-05-09T07:11:19.400Z,2.25
2023-05-09T07:11:52.325Z,1.88
2023-05-09T07:12:25.154Z,1.80
2023-05-09T07:12:59.046Z,2.05
2023-05-09T07:13:31.870Z,2.55
2023-05-09T07:14:04.864Z,2.72
2023-05-09T07:14:38.661Z,2.10
2023-05-09T07:15:11.728Z,2.28
2023-05-09T07:15:45.653Z,2.20
2023-05-09T07:16:18.715Z,2.05
2023-05-09T07:16:51.569Z,1.83
2023-05-09T07:17:25.746Z,1.80
2023-05-09T07:17:58.866Z,1.70
2023-05-09T07:18:32.760Z,2.50
2023-05-09T07:19:06.239Z,2.20
2023-05-09T07:19:39.192Z,2.10
2023-05-09T07:20:13.249Z,2.00
2023-05-09T07:20:47.564Z,2.00
2023-05-09T07:21:21.967Z,1.60
2023-05-09T07:21:55.979Z,1.67
2023-05-09T07:22:31.314Z,2.08
2023-05-09T07:23:06.152Z,2.08
2023-05-09T07:23:39.259Z,1.90
2023-05-09T07:24:14.909Z,2.42
2023-05-09T07:24:48.849Z,1.92
2023-05-09T07:25:21.725Z,2.60
2023-05-09T07:25:59.031Z,2.55
2023-05-09T07:26:31.843Z,2.05
2023-05-09T07:27:04.859Z,2.05
2023-05-09T07:27:38.669Z,2.65
2023-05-09T07:28:12.541Z,2.15
2023-05-09T07:28:45.451Z,1.98
2023-05-09T07:29:20.464Z,1.98
2023-05-09T07:29:53.387Z,2.25
2023-05-09T07:30:27.375Z,1.90
2023-05-09T07:31:00.186Z,1.65
2023-05-09T07:31:36.697Z,2.35
2023-05-09T07:32:10.448Z,2.55
2023-05-09T07:32:44.418Z,3.20
2023-05-09T07:33:17.279Z,1.70
2023-05-09T07:33:50.466Z,1.50
2023-05-09T07:34:25.634Z,1.63
2023-05-09T07:34:58.527Z,1.48
2023-05-09T07:35:32.409Z,1.63
2023-05-09T07:36:07.220Z,2.47
2023-05-09T07:36:40.162Z,2.13
2023-05-09T07:37:15.408Z,1.48
2023-05-09T07:37:49.230Z,1.52
2023-05-09T07:38:22.125Z,1.88
2023-05-09T07:38:56.025Z,1.63
2023-05-09T07:39:29.030Z,1.50
2023-05-09T07:40:03.541Z,1.60
2023-05-09T07:40:38.817Z,1.60
2023-05-09T07:41:12.799Z,2.10
2023-05-09T07:41:45.987Z,2.90